Tiempo atmosférico en la estación meteorológica de Azpeitia, Gipuzkoa (180 m.)



Fecha
DESCASC
Temp. máxima en grados centígrados (hora)
DESCASC
Temp. mínima en grados centígrados (hora)
DESCASC
Temp. media en grados centígrados
DESCASC
Racha de viento máxima en m/sg (hora)
DESCASC
Velocidad máxima media en intervalos de 10 minutos(hora)
DESCASC
Precipitaciones diarias en mm
DESCASC
Precipitaciones de 00:00 a 06:00 en mm
DESCASC
Precipitaciones de 06:00 a 12:00 en mm
DESCASC
Precipitaciones de 12:00 a 18:00 en mm
DESCASC
Precipitaciones de 18:00 a 24:00 en mm
DESCASC
16-01-2020 16.1 (13:50) 11.5 (01:50) 13.8 12.5 (23:40) 4.72 (07:50) 0 0 0 0 0
15-01-2020 16.3 (15:20) 8.2 (22:10) 12.2 21.11 (03:30) 5.56 (03:40) 0 0 0 0 0
14-01-2020 15.4 (14:20) 9.3 (07:30) 12.3 13.06 (14:50) 5.56 (14:40) 0 0 0 0 0
13-01-2020 13.4 (15:50) 1.7 (04:20) 7.5 8.06 (18:10) 3.33 (22:00) 0 0 0 0 0
12-01-2020 12.4 (15:40) -0.2 (00:00) 6.1 2.5 (15:20) 1.11 (08:00) 0 0 0 0 0
11-01-2020 12.1 (15:50) 2.3 (00:00) 7.2 3.33 (06:00) 1.94 (10:50) 0.2 0 0 0.2 0
10-01-2020 10.7 (00:00) 6.3 (00:00) 8.5 9.44 (12:30) 4.44 (12:30) 16.8 1 4.8 9.2 1.8
09-01-2020 16.8 (14:30) 7.2 (00:00) 12 15 (17:20) 6.39 (17:30) 0.4 0 0 0 0.4
08-01-2020 15.3 (15:10) 4.3 (00:00) 9.8 3.61 (13:50) 1.39 (13:50) 0 0 0 0 0
07-01-2020 14.6 (15:40) 2.8 (00:00) 8.7 4.17 (18:10) 1.67 (17:40) 0 0 0 0 0
06-01-2020 12.7 (14:50) 1.2 (00:00) 6.9 6.11 (16:00) 1.94 (15:50) 0 0 0 0 0
05-01-2020 10.4 (15:00) 4.2 (00:00) 7.3 5.28 (16:40) 1.67 (14:30) 0 0 0 0 0
04-01-2020 9.8 (12:20) 6.2 (00:00) 8 6.39 (15:00) 2.22 (10:40) 5.4 0.6 3.2 1.6 0
03-01-2020 8 (14:10) 1.8 (00:00) 4.9 2.78 (12:30) 1.67 (12:30) 0.6 0 0 0.2 0.4
02-01-2020 14.8 (15:10) 1.3 (00:00) 8.1 3.89 (13:10) 2.78 (16:00) 0 0 0 0 0
01-01-2020 13 (15:20) 3.2 (00:00) 8.1 2.5 (16:20) 1.11 (12:40) 0 0 0 0 0
31-12-2019 13.2 (15:40) 0.1 (00:00) 6.6 2.22 (14:20) 1.11 (07:10) 0 0 0 0 0
30-12-2019 -- (--) -- (--) -- -- (--) -- (--) 0 0 0 0 0
29-12-2019 13.4 (15:10) 1.6 (00:00) 7.5 1.67 (04:10) 1.11 (00:20) 0 0 0 0 0
28-12-2019 12.6 (15:30) 0.8 (00:00) 6.7 4.72 (15:40) 1.67 (13:50) 0 0 0 0 0
27-12-2019 12.5 (15:30) 1.3 (00:00) 6.9 4.72 (16:30) 1.39 (15:20) 0 0 0 0 0
26-12-2019 17.9 (01:10) 4.3 (00:00) 11.1 11.11 (03:40) 5 (03:50) 0 0 0 0 0
25-12-2019 19.3 (15:30) 6.5 (00:00) 12.9 3.89 (16:50) 1.67 (18:20) 0 0 0 0 0
24-12-2019 19.4 (15:10) 8.2 (00:00) 13.8 2.78 (02:40) 1.39 (02:40) 0 0 0 0 0
23-12-2019 14.9 (15:40) 7.4 (00:00) 11.1 6.11 (01:20) 2.5 (01:20) 0.6 0.6 0 0 0
22-12-2019 14.9 (13:50) 8.4 (00:00) 11.6 15.83 (16:30) 5.83 (02:00) 16.6 3.2 0.4 7.4 5.6
21-12-2019 20.4 (14:40) 6.4 (00:00) 13.4 17.5 (15:10) 6.39 (16:00) 4.2 0 0.2 3.6 0.4
20-12-2019 15.6 (00:00) 9.3 (00:00) 12.5 11.94 (02:30) 5.28 (04:40) 17.8 7 0 5.6 5.2

Gráficas

Temp. máximas Temp. mínimas Temp. medias Precipitaciones Rachas de viento máximas Velocidades máximas media en intervalos de 10 minutos

Datos horarios

Fecha y hora oficial Temperatura (ºC) Velocidad del viento (km/h) Dirección del viento Racha (km/h) Dirección de racha Precipitación (mm) Presión (hPa) Tendencia (hPa) Humedad (%)
2020-01-18 23:00:00 6.9 4 Sudeste 9 Oeste 3 -- -- 94
2020-01-18 22:00:00 7.1 5 Sudoeste 9 Oeste 2.4 -- -- 92
2020-01-18 21:00:00 7.6 3 Sudeste 10 Sur 1.8 -- -- 90
2020-01-18 20:00:00 8.4 7 Sudoeste 18 Oeste 1.8 -- -- 83
2020-01-18 19:00:00 9.2 10 Oeste 36 Oeste 1.2 -- -- 78
2020-01-18 18:00:00 11 6 Sur 25 Este 0 -- -- 64
2020-01-18 17:00:00 11.7 4 Este 17 Este 0 -- -- 61
2020-01-18 16:00:00 12.5 5 Norte 36 Sudeste 0 -- -- 51
2020-01-18 15:00:00 14.3 8 Sudeste 22 Este 0 -- -- 42
2020-01-18 14:00:00 14.5 8 Sudeste 26 Este 0 -- -- 42
2020-01-18 13:00:00 12.2 8 Sudeste 37 Sudeste 0 -- -- 45
2020-01-18 12:00:00 11.6 6 Sudeste 21 Este 0 -- -- 46
2020-01-18 11:00:00 11.2 6 Sur 21 Sudoeste 0 -- -- 48
2020-01-18 10:00:00 8.9 8 Sudoeste 19 Sudoeste 0 -- -- 59
2020-01-18 09:00:00 5.4 2 Nordeste 9 Sudeste 0 -- -- 89
2020-01-18 08:00:00 5.4 4 Sudoeste 11 Sudeste 0 -- -- 88
2020-01-18 07:00:00 5 8 Sudoeste 15 Oeste 0 -- -- 92
2020-01-18 06:00:00 4.8 3 Sudeste 4 Este 0 -- -- 94
2020-01-18 05:00:00 4.6 0 Calma 6 Sudeste 0 -- -- 94
2020-01-18 04:00:00 4.4 4 Sur 11 Sudoeste 0 -- -- 94
2020-01-18 03:00:00 4.5 0 Calma 5 Sudoeste 0 -- -- 94
2020-01-18 02:00:00 4.6 0 Calma 4 Sudoeste 0 -- -- 93
2020-01-18 01:00:00 5.1 0 Calma 3 Sudeste 0 -- -- 91
2020-01-18 00:00:00 5.4 2 Sudeste 8 Sudeste 0 -- -- 90
2020-01-17 23:00:00 5.6 4 Sudeste 5 Este 0 -- -- 89
2020-01-17 22:00:00 5.8 2 Sudeste 4 Nordeste 0 -- -- 86
2020-01-17 21:00:00 6.5 4 Sudoeste 8 Oeste 0 -- -- 83
2020-01-17 20:00:00 7.5 4 Sudoeste 8 Norte 0 -- -- 78
2020-01-17 19:00:00 8.3 3 Sudeste 14 Oeste 0 -- -- 71
2020-01-17 18:00:00 9.4 4 Sudoeste 19 Oeste 0 -- -- 68
2020-01-17 17:00:00 10.4 5 Noroeste 17 Oeste 0 -- -- 63
2020-01-17 16:00:00 11.5 9 Oeste 20 Sudoeste 0 -- -- 60
2020-01-17 15:00:00 11 7 Oeste 14 Oeste 0 -- -- 64
2020-01-17 14:00:00 10.1 5 Sudoeste 24 Oeste 0.2 -- -- 73
2020-01-17 13:00:00 10.5 4 Oeste 12 Oeste 0 -- -- 72
2020-01-17 12:00:00 9.5 4 Sudeste 15 Oeste 0.2 -- -- 82
2020-01-17 11:00:00 8.9 11 Oeste 27 Oeste 0.6 -- -- 82
2020-01-17 10:00:00 8.9 9 Oeste 21 Sudoeste 0.2 -- -- 84
2020-01-17 09:00:00 8.7 12 Sudoeste 35 Oeste 1.8 -- -- 85
2020-01-17 08:00:00 9.7 4 Sudeste 13 Sudoeste 0.6 -- -- 88
2020-01-17 07:00:00 10.6 4 Sudeste 27 Oeste 2.2 -- -- 80
2020-01-17 06:00:00 12.8 6 Sudeste 30 Oeste 0 -- -- 53
2020-01-17 05:00:00 12.2 3 Sur 16 Sudoeste 0 -- -- 55
2020-01-17 04:00:00 13.5 6 Sudeste 21 Sur 0 -- -- 47
2020-01-17 03:00:00 14.5 5 Norte 40 Sudoeste 0 -- -- 44
2020-01-17 02:00:00 14.8 13 Sudoeste 60 Oeste 0 -- -- 43
2020-01-17 01:00:00 14.9 12 Sudeste 53 Oeste 0 -- -- 43
2020-01-17 00:00:00 15.1 12 Sudoeste 45 Sudoeste 0 -- -- 41
2020-01-16 23:00:00 14.3 7 Sur 19 Sur 0 -- -- 45
2020-01-16 22:00:00 14.6 4 Sudeste 30 Sudeste 0 -- -- 49
2020-01-16 21:00:00 14.9 7 Sudeste 19 Sudeste 0 -- -- 51
2020-01-16 20:00:00 14.5 6 Sudeste 20 Este 0 -- -- 54
2020-01-16 19:00:00 14.7 6 Sudeste 24 Sudeste 0 -- -- 55
2020-01-16 18:00:00 15.3 7 Sudeste 28 Sudeste 0 -- -- 53
2020-01-16 17:00:00 15.5 4 Sudeste 17 Sudeste 0 -- -- 51
2020-01-16 16:00:00 15.8 5 Sudeste 35 Sudeste 0 -- -- 50
2020-01-16 15:00:00 15.9 9 Sudeste 24 Sudeste 0 -- -- 48
2020-01-16 14:00:00 15.9 8 Sudeste 25 Este 0 -- -- 48
2020-01-16 13:00:00 14.8 5 Este 26 Sudeste 0 -- -- 52
2020-01-16 12:00:00 13.7 7 Sudeste 39 Sudeste 0 -- -- 54
2020-01-16 11:00:00 13.8 12 Sudeste 32 Sudeste 0 -- -- 52
2020-01-16 10:00:00 13.4 16 Sudeste 34 Este 0 -- -- 54
2020-01-16 09:00:00 12.5 10 Sudeste 37 Sudeste 0 -- -- 56
2020-01-16 08:00:00 13 14 Sudeste 34 Sudeste 0 -- -- 53
2020-01-16 07:00:00 13.1 12 Sudeste 30 Sudeste 0 -- -- 54
2020-01-16 06:00:00 12.6 6 Sudeste 21 Sudeste 0 -- -- 54
2020-01-16 05:00:00 12.9 13 Sudeste 26 Sudeste 0 -- -- 53
2020-01-16 04:00:00 12.8 8 Sudeste 32 Sudeste 0 -- -- 51
2020-01-16 03:00:00 13.1 12 Sudeste 25 Este 0 -- -- 50
2020-01-16 02:00:00 11.8 5 Sudeste 19 Sudeste 0 -- -- 57
2020-01-16 01:00:00 12.3 8 Sudeste 21 Este 0 -- -- 55
2020-01-16 00:00:00 13 6 Sur 31 Sudoeste 0 -- -- 56
2020-01-15 23:00:00 11.3 3 Sur 19 Sudeste 0 -- -- 65
2020-01-15 22:00:00 8.3 3 Sudoeste 9 Oeste 0 -- -- 85
2020-01-15 21:00:00 8.9 4 Sur 9 Sudoeste 0 -- -- 83
2020-01-15 20:00:00 10.3 2 Sur 9 Sudoeste 0 -- -- 79
2020-01-15 19:00:00 11.6 3 Noroeste 10 Noroeste 0 -- -- 79
2020-01-15 18:00:00 14 4 Este 28 Oeste 0 -- -- 65
2020-01-15 17:00:00 15.1 7 Sudoeste 21 Oeste 0 -- -- 48
2020-01-15 16:00:00 15.7 7 Noroeste 26 Oeste 0 -- -- 46
2020-01-15 15:00:00 15.8 8 Sudoeste 33 Sudoeste 0 -- -- 43
2020-01-15 14:00:00 15.9 8 Este 37 Sudoeste 0 -- -- 43
2020-01-15 13:00:00 13.4 12 Sudeste 32 Sudeste 0 -- -- 48
2020-01-15 12:00:00 13.9 7 Sudeste 30 Sur 0 -- -- 46
2020-01-15 11:00:00 15 12 Sudoeste 49 Sur 0 -- -- 42
2020-01-15 10:00:00 13.8 8 Sudeste 34 Sur 0 -- -- 43
2020-01-15 09:00:00 11.8 8 Sudeste 25 Este 0 -- -- 49
2020-01-15 08:00:00 11.7 5 Sudoeste 29 Sudeste 0 -- -- 47
2020-01-15 07:00:00 11.2 8 Sudeste 22 Sudeste 0 -- -- 49
2020-01-15 06:00:00 13 8 Sudeste 30 Sur 0 -- -- 47
2020-01-15 05:00:00 13.1 10 Sur 40 Sur 0 -- -- 48
2020-01-15 04:00:00 13 12 Sur 76 Sudoeste 0 -- -- 50
2020-01-15 03:00:00 13.5 13 Sur 53 Sudoeste 0 -- -- 46
2020-01-15 02:00:00 11.6 11 Sudeste 36 Sudeste 0 -- -- 51
2020-01-15 01:00:00 11.5 10 Sudeste 25 Sudeste 0 -- -- 47
2020-01-15 00:00:00 10.9 5 Sudeste 24 Este 0 -- -- 50
2020-01-14 23:00:00 10.8 12 Sudeste 33 Este 0 -- -- 46
2020-01-14 22:00:00 11.3 15 Sudeste 31 Este 0 -- -- 45
2020-01-14 21:00:00 11.4 14 Sudeste 32 Sudeste 0 -- -- 44
2020-01-14 20:00:00 11.7 12 Sudeste 28 Sudeste 0 -- -- 45
2020-01-14 19:00:00 13.7 16 Sur 47 Sur 0 -- -- 39
2020-01-14 18:00:00 13.6 8 Sur 32 Sudoeste 0 -- -- 41
2020-01-14 17:00:00 13.9 10 Sudoeste 39 Sudoeste 0 -- -- 39
2020-01-14 16:00:00 14.8 15 Sudoeste 45 Sudoeste 0 -- -- 35
2020-01-14 15:00:00 15.1 13 Sudoeste 47 Sudoeste 0 -- -- 35
2020-01-14 14:00:00 14.9 13 Sudoeste 45 Sudoeste 0 -- -- 39
2020-01-14 13:00:00 13.6 20 Sudoeste 43 Sur 0 -- -- 44
2020-01-14 12:00:00 12.7 10 Sudoeste 23 Oeste 0 -- -- 49
2020-01-14 11:00:00 12 9 Sudoeste 20 Sudoeste 0 -- -- 53
2020-01-14 10:00:00 11 4 Sudoeste 14 Este 0 -- -- 57
2020-01-14 09:00:00 10.2 5 Sudoeste 13 Sudoeste 0 -- -- 57
2020-01-14 08:00:00 9.5 3 Sur 9 Oeste 0 -- -- 59
2020-01-14 07:00:00 10.2 4 Sur 19 Sudoeste 0 -- -- 55
2020-01-14 06:00:00 10.4 5 Oeste 17 Oeste 0 -- -- 54
2020-01-14 05:00:00 10.3 4 Oeste 23 Sudoeste 0 -- -- 52
2020-01-14 04:00:00 10.1 5 Sur 21 Sudoeste 0 -- -- 51
2020-01-14 03:00:00 11.4 6 Nordeste 34 Sudoeste 0 -- -- 45
2020-01-14 02:00:00 11.2 10 Oeste 33 Oeste 0 -- -- 44
2020-01-14 01:00:00 10.1 4 Sudeste 22 Sudoeste 0 -- -- 46
2020-01-14 00:00:00 10.5 10 Sudoeste 24 Oeste 0 -- -- 42
2020-01-13 23:00:00 10 7 Sudoeste 22 Oeste 0 -- -- 42
2020-01-13 22:00:00 11 12 Sudoeste 24 Oeste 0 -- -- 35
2020-01-13 21:00:00 10.8 4 Este 19 Oeste 0 -- -- 35
2020-01-13 20:00:00 11.5 5 Oeste 21 Sudoeste 0 -- -- 30
2020-01-13 19:00:00 11.7 7 Sudoeste 29 Sur 0 -- -- 33
2020-01-13 18:00:00 13 6 Sudoeste 19 Sudoeste 0 -- -- 26
2020-01-13 17:00:00 13.3 8 Sudoeste 29 Sudoeste 0 -- -- 24
2020-01-13 16:00:00 13.2 6 Oeste 14 Sudoeste 0 -- -- 27
2020-01-13 15:00:00 12.4 6 Sudoeste 14 Oeste 0 -- -- 38
2020-01-13 14:00:00 12.4 4 Nordeste 10 Sudoeste 0 -- -- 45
2020-01-13 13:00:00 11.5 4 Sudoeste 9 Sur 0 -- -- 53
2020-01-13 12:00:00 8.1 2 Sudeste 6 Sudoeste 0 -- -- 91
2020-01-13 11:00:00 5.6 3 Sudoeste 7 Oeste 0 -- -- 100
2020-01-13 10:00:00 4 3 Sudoeste 7 Sudeste 0 -- -- 99
2020-01-13 09:00:00 3 3 Noroeste 5 Este 0 -- -- 99
2020-01-13 08:00:00 2.5 3 Sudeste 9 Oeste 0 -- -- 99
2020-01-13 07:00:00 1.9 3 Oeste 4 Sur 0 -- -- 99
2020-01-13 06:00:00 1.7 0 Calma 5 Este 0 -- -- 98
2020-01-13 05:00:00 1.8 0 Calma 2 Sudoeste 0 -- -- 98
2020-01-13 04:00:00 1.9 0 Calma 2 Noroeste 0 -- -- 98
2020-01-13 03:00:00 2 0 Calma 3 Sudeste 0 -- -- 98
2020-01-13 02:00:00 2.4 0 Calma 6 Este 0 -- -- 97
2020-01-13 01:00:00 2.5 2 Noroeste 4 Sudoeste 0 -- -- 97
2020-01-13 00:00:00 2.8 0 Calma 4 Noroeste 0 -- -- 96
2020-01-12 23:00:00 3.2 0 Calma 4 Sudeste 0 -- -- 95
2020-01-12 22:00:00 3.6 0 Calma 3 Sudeste 0 -- -- 95
2020-01-12 21:00:00 4.2 0 Calma 5 Sudoeste 0 -- -- 92
2020-01-12 20:00:00 5 2 Sudeste 5 Sudoeste 0 -- -- 90
2020-01-12 19:00:00 6.3 0 Calma 3 Noroeste 0 -- -- 83
2020-01-12 18:00:00 8 0 Calma 5 Sudoeste 0 -- -- 77
2020-01-12 17:00:00 9.9 2 Oeste 7 Noroeste 0 -- -- 73
2020-01-12 16:00:00 12.1 2 Norte 9 Oeste 0 -- -- 62
2020-01-12 15:00:00 11.1 2 Sudoeste 5 Noroeste 0 -- -- 67
2020-01-12 14:00:00 9.3 2 Oeste 6 Oeste 0 -- -- 77
2020-01-12 13:00:00 5.5 0 Calma 5 Sudeste 0 -- -- 93
2020-01-12 12:00:00 4.7 2 Sudeste 5 Sudeste 0 -- -- 91
2020-01-12 11:00:00 3.2 0 Calma 5 Sudeste 0 -- -- 99
2020-01-12 10:00:00 1 3 Este 6 Sudeste 0 -- -- 99
2020-01-12 09:00:00 0 0 Calma 6 Sudeste 0 -- -- 99
2020-01-12 08:00:00 0.1 4 Oeste 6 Oeste 0 -- -- 99
2020-01-12 07:00:00 0 0 Calma 3 Nordeste 0 -- -- 99
2020-01-12 06:00:00 0 0 Calma 4 Este 0 -- -- 99
2020-01-12 05:00:00 0.5 3 Oeste 5 Noroeste 0 -- -- 98
2020-01-12 04:00:00 0.7 0 Calma 4 Oeste 0 -- -- 98
2020-01-12 03:00:00 1.1 0 Calma 4 Sudeste 0 -- -- 98
2020-01-12 02:00:00 1.6 0 Calma 4 Noroeste 0 -- -- 98
2020-01-12 01:00:00 2 0 Calma 3 Sudeste 0 -- -- 97
2020-01-12 00:00:00 2.3 0 Calma 3 Este 0 -- -- 97
2020-01-11 23:00:00 2.8 0 Calma 6 Sudoeste 0 -- -- 96
2020-01-11 22:00:00 3.5 5 Sudoeste 7 Sudoeste 0 -- -- 96
2020-01-11 21:00:00 4.1 2 Sudoeste 8 Sudoeste 0 -- -- 94
2020-01-11 20:00:00 4.9 3 Sudoeste 6 Sudoeste 0 -- -- 91
2020-01-11 19:00:00 6.4 2 Oeste 5 Oeste 0 -- -- 85
2020-01-11 18:00:00 8.4 4 Noroeste 11 Norte 0 -- -- 76
2020-01-11 17:00:00 9.6 3 Noroeste 6 Noroeste 0 -- -- 68
2020-01-11 16:00:00 11.7 0 Calma 3 Sudeste 0 -- -- 60
2020-01-11 15:00:00 11.6 0 Calma 4 Sudeste 0.2 -- -- 60
2020-01-11 14:00:00 9.1 0 Calma 4 Noroeste 0 -- -- 88
2020-01-11 13:00:00 6.8 0 Calma 7 Sudoeste 0 -- -- 98
2020-01-11 12:00:00 5.6 2 Este 5 Este 0 -- -- 99
2020-01-11 11:00:00 4.6 3 Oeste 10 Oeste 0 -- -- 99
2020-01-11 10:00:00 4.2 3 Este 5 Este 0 -- -- 99
2020-01-11 09:00:00 4.4 3 Oeste 6 Oeste 0 -- -- 99
2020-01-11 08:00:00 4.2 3 Sudeste 6 Sudeste 0 -- -- 99
2020-01-11 07:00:00 4 0 Calma 10 Sudeste 0 -- -- 98
2020-01-11 06:00:00 4.4 6 Este 12 Sudeste 0 -- -- 98
2020-01-11 05:00:00 4.8 2 Este 6 Este 0 -- -- 98
2020-01-11 04:00:00 5 3 Sudeste 7 Sudeste 0 -- -- 98
2020-01-11 03:00:00 5.8 3 Sudeste 8 Sudeste 0 -- -- 98
2020-01-11 02:00:00 5.9 3 Sudeste 7 Este 0 -- -- 98
2020-01-11 01:00:00 6.1 4 Sudeste 6 Sudeste 0 -- -- 98
2020-01-11 00:00:00 6.3 2 Sur 6 Sudoeste 0 -- -- 97
2020-01-10 23:00:00 6.7 0 Calma 4 Sudeste 0 -- -- 97
2020-01-10 22:00:00 7.1 2 Sudeste 5 Sudeste 0 -- -- 96
2020-01-10 21:00:00 7.6 2 Oeste 10 Sudoeste 0.6 -- -- 96
2020-01-10 20:00:00 7.7 2 Oeste 5 Sudoeste 0.2 -- -- 94
2020-01-10 19:00:00 7.9 4 Oeste 10 Sudeste 1 -- -- 93
2020-01-10 18:00:00 8.5 2 Sur 23 Oeste 1.4 -- -- 87
2020-01-10 17:00:00 9.7 4 Norte 22 Noroeste 0.4 -- -- 70
2020-01-10 16:00:00 10.2 8 Noroeste 27 Noroeste 0.2 -- -- 72
2020-01-10 15:00:00 10.3 5 Noroeste 18 Norte 0 -- -- 72
2020-01-10 14:00:00 9.1 4 Norte 25 Noroeste 7.2 -- -- 89
2020-01-10 13:00:00 9.7 8 Oeste 34 Oeste 0 -- -- 87
2020-01-10 12:00:00 8.9 3 Noroeste 16 Sudoeste 2 -- -- 90
2020-01-10 11:00:00 8.7 3 Nordeste 27 Oeste 1.8 -- -- 89
2020-01-10 10:00:00 8.6 11 Oeste 22 Oeste 0.2 -- -- 82
2020-01-10 09:00:00 8.1 8 Oeste 24 Oeste 0.4 -- -- 84
2020-01-10 08:00:00 8.2 11 Oeste 22 Oeste 0.2 -- -- 82
2020-01-10 07:00:00 8.1 10 Oeste 17 Sudoeste 0.2 -- -- 80
2020-01-10 06:00:00 8.4 7 Oeste 17 Sudoeste 0.4 -- -- 79
2020-01-10 05:00:00 8.8 8 Oeste 17 Oeste 0.2 -- -- 75
2020-01-10 04:00:00 9.3 8 Oeste 17 Oeste 0 -- -- 70
2020-01-10 03:00:00 9.3 7 Oeste 28 Oeste 0.2 -- -- 73
2020-01-10 02:00:00 10 4 Sudoeste 16 Sudoeste 0.2 -- -- 66
2020-01-10 01:00:00 10.4 3 Oeste 15 Oeste 0 -- -- 64
2020-01-10 00:00:00 10.7 5 Oeste 23 Noroeste 0 -- -- 63
2020-01-09 23:00:00 10.5 3 Sur 19 Sudoeste 0 -- -- 72
2020-01-09 22:00:00 10.2 3 Sudeste 11 Sudoeste 0.2 -- -- 75
2020-01-09 21:00:00 10.5 5 Sur 20 Oeste 0 -- -- 71
2020-01-09 20:00:00 11 8 Sudoeste 21 Sudoeste 0.2 -- -- 71
2020-01-09 19:00:00 11.6 6 Sudoeste 33 Oeste 0 -- -- 68
2020-01-09 18:00:00 11.6 15 Oeste 54 Oeste 0 -- -- 68
2020-01-09 17:00:00 15.3 3 Noroeste 16 Sudoeste 0 -- -- 56
2020-01-09 16:00:00 16.2 6 Sur 19 Sudoeste 0 -- -- 48
2020-01-09 15:00:00 16.6 8 Sur 36 Sur 0 -- -- 47
2020-01-09 14:00:00 16.1 9 Sudoeste 34 Este 0 -- -- 44
2020-01-09 13:00:00 14.2 11 Sudeste 27 Sudeste 0 -- -- 52
2020-01-09 12:00:00 13.3 8 Sudeste 17 Sudeste 0 -- -- 54
2020-01-09 11:00:00 12.6 5 Sudoeste 21 Sudeste 0 -- -- 59
2020-01-09 10:00:00 10.9 6 Sudoeste 12 Sudoeste 0 -- -- 64
2020-01-09 09:00:00 11.3 4 Sur 21 Este 0 -- -- 62
2020-01-09 08:00:00 11 7 Sudoeste 19 Sudoeste 0 -- -- 64
2020-01-09 07:00:00 9.2 3 Sudeste 10 Este 0 -- -- 73
2020-01-09 06:00:00 10 4 Sudeste 16 Sudeste 0 -- -- 68
2020-01-09 05:00:00 11.5 7 Sudoeste 18 Este 0 -- -- 58
2020-01-09 04:00:00 11.2 4 Sur 16 Este 0 -- -- 58
2020-01-09 03:00:00 9.7 5 Sudoeste 12 Sudoeste 0 -- -- 64
2020-01-09 02:00:00 8.6 2 Oeste 9 Sudoeste 0 -- -- 75
2020-01-09 01:00:00 8.8 5 Sudoeste 9 Sudoeste 0 -- -- 75
2020-01-09 00:00:00 7.2 2 Sudoeste 9 Sur 0 -- -- 88
2020-01-08 23:00:00 7 0 Calma 6 Sudoeste 0 -- -- 90
2020-01-08 22:00:00 7.1 2 Sudeste 6 Sudoeste 0 -- -- 90
2020-01-08 21:00:00 7.6 0 Calma 6 Sudoeste 0 -- -- 88
2020-01-08 20:00:00 8.4 2 Sudoeste 5 Sudoeste 0 -- -- 82
2020-01-08 19:00:00 9.7 0 Calma 6 Sudoeste 0 -- -- 77
2020-01-08 18:00:00 11.9 3 Sudoeste 9 Noroeste 0 -- -- 63
2020-01-08 17:00:00 13.1 3 Sur 11 Norte 0 -- -- 50
2020-01-08 16:00:00 14.9 4 Norte 12 Norte 0 -- -- 54
2020-01-08 15:00:00 15.2 3 Nordeste 12 Nordeste 0 -- -- 60
2020-01-08 14:00:00 12.9 4 Norte 13 Norte 0 -- -- 73
2020-01-08 13:00:00 9.4 0 Calma 6 Este 0 -- -- 100
2020-01-08 12:00:00 7.5 2 Sudeste 8 Sudeste 0 -- -- 100
2020-01-08 11:00:00 5.8 2 Sur 4 Sur 0 -- -- 100
2020-01-08 10:00:00 4.6 3 Oeste 4 Oeste 0 -- -- 99
2020-01-08 09:00:00 4.3 0 Calma 6 Sudeste 0 -- -- 99
2020-01-08 08:00:00 4.3 3 Oeste 7 Oeste 0 -- -- 99
2020-01-08 07:00:00 4.7 0 Calma 3 Este 0 -- -- 98
2020-01-08 06:00:00 4.9 0 Calma 5 Noroeste 0 -- -- 98
2020-01-08 05:00:00 5.2 0 Calma 3 Este 0 -- -- 98
2020-01-08 04:00:00 5.5 0 Calma 4 Sudeste 0 -- -- 98
2020-01-08 03:00:00 5.7 0 Calma 3 Oeste 0 -- -- 98
2020-01-08 02:00:00 5.8 0 Calma 3 Norte 0 -- -- 98
2020-01-08 01:00:00 6 0 Calma 4 Oeste 0 -- -- 97
2020-01-08 00:00:00 6.2 0 Calma 5 Oeste 0 -- -- 97
2020-01-07 23:00:00 6.4 0 Calma 4 Este 0 -- -- 96
2020-01-07 22:00:00 6.7 0 Calma 4 Sudeste 0 -- -- 95
2020-01-07 21:00:00 7.4 0 Calma 4 Este 0 -- -- 93
2020-01-07 20:00:00 8.2 3 Sudoeste 6 Oeste 0 -- -- 89
2020-01-07 19:00:00 9.5 5 Oeste 15 Nordeste 0 -- -- 83
2020-01-07 18:00:00 10.9 5 Nordeste 14 Norte 0 -- -- 78
2020-01-07 17:00:00 12.1 3 Norte 10 Noroeste 0 -- -- 73
2020-01-07 16:00:00 13.7 4 Norte 11 Norte 0 -- -- 65
2020-01-07 15:00:00 13.8 3 Norte 11 Nordeste 0 -- -- 65
2020-01-07 14:00:00 11 0 Calma 9 Oeste 0 -- -- 80
2020-01-07 13:00:00 8 3 Oeste 6 Sudoeste 0 -- -- 90
2020-01-07 12:00:00 6.1 3 Sudoeste 6 Sudoeste 0 -- -- 98
2020-01-07 11:00:00 4.9 0 Calma 5 Sudoeste 0 -- -- 99
2020-01-07 10:00:00 3.6 0 Calma 3 Norte 0 -- -- 99
2020-01-07 09:00:00 3 0 Calma 8 Sudeste 0 -- -- 98
2020-01-07 08:00:00 3.1 3 Nordeste 5 Sudeste 0 -- -- 98
2020-01-07 07:00:00 2.9 0 Calma 2 Este 0 -- -- 98
2020-01-07 06:00:00 3.2 0 Calma 5 Sudoeste 0 -- -- 98
2020-01-07 05:00:00 3.5 3 Oeste 4 Sudoeste 0 -- -- 97
2020-01-07 04:00:00 4 2 Sudeste 12 Sudoeste 0 -- -- 97
2020-01-07 03:00:00 4.2 4 Sudoeste 8 Oeste 0 -- -- 97
2020-01-07 02:00:00 4.4 2 Sudeste 10 Oeste 0 -- -- 97
2020-01-07 01:00:00 4.2 2 Sudoeste 5 Noroeste 0 -- -- 97
2020-01-07 00:00:00 4.1 2 Sudeste 6 Oeste 0 -- -- 95
2020-01-06 23:00:00 4.8 0 Calma 5 Sudoeste 0 -- -- 94
2020-01-06 22:00:00 5.1 5 Sudoeste 7 Sudoeste 0 -- -- 94
2020-01-06 21:00:00 6 4 Sudoeste 9 Sudeste 0 -- -- 91
2020-01-06 20:00:00 6.8 4 Sudeste 10 Sudoeste 0 -- -- 89
2020-01-06 19:00:00 7.6 2 Noroeste 7 Sur 0 -- -- 85
2020-01-06 18:00:00 9.1 5 Sudeste 15 Nordeste 0 -- -- 83
2020-01-06 17:00:00 10 5 Nordeste 19 Nordeste 0 -- -- 70
2020-01-06 16:00:00 11.3 6 Nordeste 22 Nordeste 0 -- -- 59
2020-01-06 15:00:00 12.7 4 Sur 15 Norte 0 -- -- 56
2020-01-06 14:00:00 11.5 3 Noroeste 6 Norte 0 -- -- 61
2020-01-06 13:00:00 8.5 0 Calma 6 Este 0 -- -- 70
2020-01-06 12:00:00 7.4 3 Este 6 Este 0 -- -- 84
2020-01-06 11:00:00 5.7 2 Sudoeste 6 Sudeste 0 -- -- 85
2020-01-06 10:00:00 3 2 Sudoeste 5 Sudoeste 0 -- -- 99